^^
Station Historical Data
Daily Summary for Nil La, TWC- Units:  English    Metric   Both
« Previous Day
Next Day »
Daily Weekly Monthly Yearly Custom
  High: Low: Average:
Temperature: TemperatureC °F 9.6 °F 10.9 °F
Dew Point: DewpointC °F 8.2 °F 9.5 °F
Humidity: Humidity% 89% 90%
Wind Speed: WindSpeedKMHmph 0.0mph 0mph
Wind Gust: WindSpeedGustKMHmph - -
Wind- - North
Pressure: PressurehPa in 1013.2 in -
Precipitation: 0.0 in    
Historical Graphs
 
 
Tabular Data for Nil La, TWC-
Time Temperature Dew Point Pressure Wind Wind Speed Wind Gust Humidity Rainfall Rate (Hourly) solar Conditions
TemperatureC °F DewpointC °F PressurehPa in Calm     Humidity% HourlyPrecipMM in SoftwareType W/m2 Conditions
00:04 13.2 °F 11.4 °F 1013.2 in Calm     89% 0.0 in WeatherDisplay:10.37 W/m2 RA
00:09 13.1 °F 11.3 °F 1013.3 in Calm     89% 0.0 in WeatherDisplay:10.37 W/m2 RA
00:14 13.1 °F 11.4 °F 1013.3 in Calm     90% 0.0 in WeatherDisplay:10.37 W/m2 CLR
00:19 12.9 °F 11.3 °F 1013.4 in Calm     90% 0.0 in WeatherDisplay:10.37 W/m2 CLR
00:24 12.8 °F 11.2 °F 1013.4 in Calm     90% 0.0 in WeatherDisplay:10.37 W/m2 CLR
00:29 12.8 °F 11.2 °F 1013.5 in Calm     90% 0.0 in WeatherDisplay:10.37 W/m2 CLR
00:34 12.7 °F 11.1 °F 1013.5 in Calm     90% 0.0 in WeatherDisplay:10.37 W/m2 CLR
00:39 12.6 °F 10.9 °F 1013.6 in Calm     90% 0.0 in WeatherDisplay:10.37 W/m2 CLR
00:44 12.5 °F 10.9 °F 1013.7 in Calm     90% 0.0 in WeatherDisplay:10.37 W/m2 CLR
00:49 12.4 °F 10.8 °F 1013.7 in Calm     90% 0.0 in WeatherDisplay:10.37 W/m2 CLR
00:54 12.4 °F 10.8 °F 1013.7 in Calm     90% 0.0 in WeatherDisplay:10.37 W/m2 CLR
00:59 12.3 °F 10.7 °F 1013.7 in Calm     90% 0.0 in WeatherDisplay:10.37 W/m2 CLR
01:04 12.3 °F 10.8 °F 1013.8 in Calm     91% 0.0 in WeatherDisplay:10.37 W/m2 CLR
01:09 12.2 °F 10.6 °F 1013.8 in Calm     90% 0.0 in WeatherDisplay:10.37 W/m2 CLR
01:14 12.2 °F 10.8 °F 1013.8 in Calm     91% 0.0 in WeatherDisplay:10.37 W/m2 CLR
01:19 12.2 °F 10.7 °F 1013.9 in Calm     91% 0.0 in WeatherDisplay:10.37 W/m2 CLR
01:24 12.1 °F 10.6 °F 1014.0 in Calm     91% 0.0 in WeatherDisplay:10.37 W/m2 CLR
01:29 12.0 °F 10.6 °F 1014.0 in Calm     91% 0.0 in WeatherDisplay:10.37 W/m2 CLR
01:34 11.9 °F 10.5 °F 1014.0 in Calm     91% 0.0 in WeatherDisplay:10.37 W/m2 CLR
01:39 11.8 °F 10.2 °F 1014.0 in Calm     90% 0.0 in WeatherDisplay:10.37 W/m2 CLR
01:44 11.7 °F 10.1 °F 1014.0 in Calm     90% 0.0 in WeatherDisplay:10.37 W/m2 CLR
01:49 11.7 °F 10.2 °F 1014.1 in Calm     91% 0.0 in WeatherDisplay:10.37 W/m2 CLR
01:54 11.6 °F 10.1 °F 1014.1 in Calm     91% 0.0 in WeatherDisplay:10.37 W/m2 CLR
01:59 11.6 °F 10.1 °F 1014.1 in Calm     91% 0.0 in WeatherDisplay:10.37 W/m2 CLR
02:04 11.5 °F 10.1 °F 1014.2 in Calm     91% 0.0 in WeatherDisplay:10.37 W/m2 CLR
02:09 11.4 °F 10.0 °F 1014.2 in Calm     91% 0.0 in WeatherDisplay:10.37 W/m2 CLR
02:14 11.3 °F 9.9 °F 1014.2 in Calm     91% 0.0 in WeatherDisplay:10.37 W/m2 CLR
02:19 11.2 °F 9.8 °F 1014.2 in Calm     91% 0.0 in WeatherDisplay:10.37 W/m2 CLR
02:24 11.2 °F 9.8 °F 1014.3 in Calm     91% 0.0 in WeatherDisplay:10.37 W/m2 CLR
02:29 11.2 °F 9.8 °F 1014.2 in Calm     91% 0.0 in WeatherDisplay:10.37 W/m2 CLR
02:34 11.1 °F 9.7 °F 1014.3 in Calm     91% 0.0 in WeatherDisplay:10.37 W/m2 CLR
02:39 11.1 °F 9.7 °F 1014.2 in Calm     91% 0.0 in WeatherDisplay:10.37 W/m2 CLR
02:44 11.0 °F 9.6 °F 1014.3 in Calm     91% 0.0 in WeatherDisplay:10.37 W/m2 CLR
02:49 10.9 °F 9.6 °F 1014.3 in Calm     91% 0.0 in WeatherDisplay:10.37 W/m2 CLR
02:54 10.8 °F 9.4 °F 1014.2 in Calm     91% 0.0 in WeatherDisplay:10.37 W/m2 CLR
02:59 10.8 °F 9.4 °F 1014.2 in Calm     91% 0.0 in WeatherDisplay:10.37 W/m2 CLR
03:04 10.7 °F 9.3 °F 1014.2 in Calm     91% 0.0 in WeatherDisplay:10.37 W/m2 CLR
03:09 10.7 °F 9.3 °F 1014.2 in Calm     91% 0.0 in WeatherDisplay:10.37 W/m2 CLR
03:14 10.6 °F 9.2 °F 1014.2 in Calm     91% 0.0 in WeatherDisplay:10.37 W/m2 CLR
03:19 10.6 °F 9.2 °F 1014.2 in Calm     91% 0.0 in WeatherDisplay:10.37 W/m2 CLR
03:24 10.5 °F 9.1 °F 1014.2 in Calm     91% 0.0 in WeatherDisplay:10.37 W/m2 CLR
03:29 10.4 °F 9.1 °F 1014.2 in Calm     91% 0.0 in WeatherDisplay:10.37 W/m2 CLR
03:34 10.4 °F 9.0 °F 1014.3 in Calm     91% 0.0 in WeatherDisplay:10.37 W/m2 CLR
03:39 10.3 °F 8.9 °F 1014.3 in Calm     91% 0.0 in WeatherDisplay:10.37 W/m2 CLR
03:44 10.3 °F 8.9 °F 1014.2 in Calm     91% 0.0 in WeatherDisplay:10.37 W/m2 CLR
03:49 10.3 °F 8.9 °F 1014.2 in Calm     91% 0.0 in WeatherDisplay:10.37 W/m2 CLR
03:54 10.3 °F 8.9 °F 1014.3 in Calm     91% 0.0 in WeatherDisplay:10.37 W/m2 CLR
03:59 10.2 °F 8.8 °F 1014.4 in Calm     91% 0.0 in WeatherDisplay:10.37 W/m2 CLR
04:04 10.2 °F 8.8 °F 1014.4 in Calm     91% 0.0 in WeatherDisplay:10.37 W/m2 CLR
04:09 10.1 °F 8.7 °F 1014.5 in Calm     91% 0.0 in WeatherDisplay:10.37 W/m2 CLR
04:14 10.0 °F 8.6 °F 1014.5 in Calm     91% 0.0 in WeatherDisplay:10.37 W/m2 CLR
04:19 10.0 °F 8.6 °F 1014.5 in Calm     91% 0.0 in WeatherDisplay:10.37 W/m2 CLR
04:24 9.9 °F 8.6 °F 1014.5 in Calm     91% 0.0 in WeatherDisplay:10.37 W/m2 CLR
04:29 9.9 °F 8.5 °F 1014.6 in Calm     91% 0.0 in WeatherDisplay:10.37 W/m2 CLR
04:34 9.8 °F 8.4 °F 1014.7 in Calm     91% 0.0 in WeatherDisplay:10.37 W/m2 CLR
04:39 9.8 °F 8.4 °F 1014.7 in Calm     91% 0.0 in WeatherDisplay:10.37 W/m2 CLR
04:44 9.7 °F 8.3 °F 1014.7 in Calm     91% 0.0 in WeatherDisplay:10.37 W/m2 CLR
04:49 9.7 °F 8.3 °F 1014.7 in Calm     91% 0.0 in WeatherDisplay:10.37 W/m2 CLR
04:54 9.7 °F 8.3 °F 1014.8 in Calm     91% 0.0 in WeatherDisplay:10.37 W/m2 CLR
04:59 9.6 °F 8.2 °F 1014.9 in Calm     91% 0.0 in WeatherDisplay:10.37 W/m2 CLR
05:04 9.6 °F 8.2 °F 1014.9 in Calm     91% 0.0 in WeatherDisplay:10.37 W/m2 SKC
05:09 9.6 °F 8.2 °F 1014.9 in Calm     91% 0.0 in WeatherDisplay:10.37 W/m2 SKC
05:14 9.7 °F 8.3 °F 1015.0 in Calm     91% 0.0 in WeatherDisplay:10.37 W/m2 SKC
05:19 9.7 °F 8.4 °F 1015.0 in Calm     92% 0.0 in WeatherDisplay:10.37 W/m2 SKC
05:24 9.7 °F 8.3 °F 1015.0 in Calm     91% 0.0 in WeatherDisplay:10.37 W/m2 SKC
05:29 9.8 °F 8.6 °F 1015.0 in Calm     92% 0.0 in WeatherDisplay:10.37 W/m2 SKC
05:34 9.8 °F 8.6 °F 1015.1 in Calm     92% 0.0 in WeatherDisplay:10.37 W/m2 CLR
05:39 9.9 °F 8.7 °F 1015.1 in Calm     92% 0.0 in WeatherDisplay:10.37 W/m2 CLR
05:44 9.9 °F 8.7 °F 1015.1 in Calm     92% 0.0 in WeatherDisplay:10.37 W/m2 CLR
05:49 10.0 °F 8.8 °F 1015.2 in Calm     92% 0.0 in WeatherDisplay:10.37 W/m2 CLR
05:54 10.1 °F 8.8 °F 1015.2 in Calm     92% 0.0 in WeatherDisplay:10.37 W/m2 CLR
05:59 10.2 °F 8.9 °F 1015.2 in Calm     92% 0.0 in WeatherDisplay:10.37 W/m2 CLR
06:04 10.2 °F 9.0 °F 1015.1 in Calm     92% 0.0 in WeatherDisplay:10.37 W/m2 CLR
06:09 10.3 °F 9.1 °F 1015.2 in Calm     92% 0.0 in WeatherDisplay:10.37 W/m2 CLR
06:14 10.3 °F 9.1 °F 1015.2 in Calm     92% 0.0 in WeatherDisplay:10.37 W/m2 CLR
06:19 10.4 °F 9.2 °F 1015.2 in Calm     92% 0.0 in WeatherDisplay:10.37 W/m2 CLR
06:24 10.4 °F 9.2 °F 1015.2 in Calm     92% 0.0 in WeatherDisplay:10.37 W/m2 CLR
06:29 10.4 °F 9.2 °F 1015.3 in Calm     92% 0.0 in WeatherDisplay:10.37 W/m2 CLR
06:34 10.5 °F 9.3 °F 1015.3 in Calm     92% 0.0 in WeatherDisplay:10.37 W/m2 CLR
06:39 10.6 °F 9.3 °F 1015.3 in Calm     92% 0.0 in WeatherDisplay:10.37 W/m2 CLR
06:44 10.6 °F 9.3 °F 1015.4 in Calm     92% 0.0 in WeatherDisplay:10.37 W/m2 CLR
06:49 10.7 °F 9.4 °F 1015.4 in Calm     92% 0.0 in WeatherDisplay:10.37 W/m2 CLR
06:54 10.7 °F 9.5 °F 1015.5 in Calm     92% 0.0 in WeatherDisplay:10.37 W/m2 CLR
06:59 10.8 °F 9.6 °F 1015.5 in Calm     92% 0.0 in WeatherDisplay:10.37 W/m2 CLR
07:04 11.0 °F 9.7 °F 1015.5 in Calm     92% 0.0 in WeatherDisplay:10.37 W/m2 CLR
07:09 11.1 °F 9.8 °F 1015.5 in Calm     92% 0.0 in WeatherDisplay:10.37 W/m2 CLR
07:14 11.3 °F 10.0 °F 1015.6 in Calm     92% 0.0 in WeatherDisplay:10.37 W/m2 CLR
07:19 11.4 °F 10.2 °F 1015.6 in Calm     92% 0.0 in WeatherDisplay:10.37 W/m2 CLR
07:24 11.6 °F 10.1 °F 1015.6 in Calm     91% 0.0 in WeatherDisplay:10.37 W/m2 CLR
07:29 11.8 °F 10.5 °F 1015.7 in Calm     92% 0.0 in WeatherDisplay:10.37 W/m2 CLR
07:33 11.9 °F 10.5 °F 1015.7 in Calm     91% 0.0 in WeatherDisplay:10.37 W/m2 CLR
07:39 12.2 °F 10.9 °F 1015.8 in Calm     92% 0.0 in WeatherDisplay:10.37 W/m2 CLR
Tuulensuunkaari, Veikkola, Suomi
Compliments of Weather Underground - 1.75 mb